Time,TemperatureF,DewpointF,PressureIn,WindDirection,WindDirectionDegrees,WindSpeedMPH,WindSpeedGustMPH,Humidity,HourlyPrecipIn,Conditions,Clouds,dailyrainin,SoftwareType,DateUTC
2013-07-08 00:00:00,52.8,50.0,29.84,West,259,0.0,1.0,91,0.16,,,0.19,weatherlink.com 1.10,2013-07-08 06:00:00,
2013-07-08 00:15:00,52.7,51.0,29.84,West,259,0.0,1.0,93,0.16,,,0.00,weatherlink.com 1.10,2013-07-08 06:15:00,
2013-07-08 00:30:00,52.7,51.0,29.84,West,259,0.0,1.0,93,0.16,,,0.00,weatherlink.com 1.10,2013-07-08 06:30:00,
2013-07-08 00:45:00,52.7,51.0,29.82,WSW,257,0.0,2.0,94,0.09,,,0.01,weatherlink.com 1.10,2013-07-08 06:45:00,
2013-07-08 01:00:00,52.7,51.0,29.81,SSW,200,0.0,2.0,94,0.02,,,0.02,weatherlink.com 1.10,2013-07-08 07:00:00,
2013-07-08 01:15:00,52.4,51.0,29.82,SSW,194,0.0,0.0,93,0.02,,,0.02,weatherlink.com 1.10,2013-07-08 07:15:00,
2013-07-08 01:30:00,51.7,50.0,29.83,SSW,194,0.0,0.0,93,0.02,,,0.02,weatherlink.com 1.10,2013-07-08 07:30:00,
2013-07-08 01:45:00,51.0,49.0,29.83,SSW,194,0.0,0.0,94,0.01,,,0.02,weatherlink.com 1.10,2013-07-08 07:45:00,
2013-07-08 02:00:00,50.6,49.0,29.83,SSW,195,0.0,0.0,95,0.00,,,0.02,weatherlink.com 1.10,2013-07-08 08:00:00,
2013-07-08 02:15:00,50.1,49.0,29.84,SSW,195,0.0,0.0,94,0.00,,,0.02,weatherlink.com 1.10,2013-07-08 08:15:00,
2013-07-08 02:30:00,50.0,49.0,29.83,SE,136,0.0,1.0,95,0.00,,,0.02,weatherlink.com 1.10,2013-07-08 08:30:00,
2013-07-08 02:45:00,49.6,48.0,29.82,SE,136,0.0,0.0,95,0.00,,,0.02,weatherlink.com 1.10,2013-07-08 08:45:00,
2013-07-08 03:00:00,49.5,48.0,29.82,SE,136,0.0,1.0,95,0.00,,,0.02,weatherlink.com 1.10,2013-07-08 09:00:00,
2013-07-08 03:16:00,49.3,48.0,29.82,SE,136,0.0,1.0,95,0.00,,,0.02,weatherlink.com 1.10,2013-07-08 09:16:00,
2013-07-08 03:31:00,49.2,48.0,29.83,SE,136,0.0,0.0,96,0.00,,,0.02,weatherlink.com 1.10,2013-07-08 09:31:00,
2013-07-08 03:46:00,49.0,48.0,29.83,SE,136,0.0,0.0,95,0.00,,,0.02,weatherlink.com 1.10,2013-07-08 09:46:00,
2013-07-08 04:01:00,48.6,47.0,29.83,SE,136,0.0,1.0,95,0.00,,,0.02,weatherlink.com 1.10,2013-07-08 10:01:00,
2013-07-08 04:16:00,48.2,47.0,29.84,SE,136,0.0,1.0,95,0.00,,,0.02,weatherlink.com 1.10,2013-07-08 10:16:00,
2013-07-08 04:31:00,47.9,47.0,29.84,SE,136,0.0,1.0,96,0.00,,,0.02,weatherlink.com 1.10,2013-07-08 10:31:00,
2013-07-08 04:46:00,47.4,46.0,29.85,SE,136,0.0,0.0,96,0.00,,,0.02,weatherlink.com 1.10,2013-07-08 10:46:00,
2013-07-08 05:01:00,47.0,46.0,29.85,SE,136,0.0,1.0,96,0.00,,,0.02,weatherlink.com 1.10,2013-07-08 11:01:00,
2013-07-08 05:16:00,46.4,45.0,29.86,SE,136,0.0,0.0,95,0.00,,,0.02,weatherlink.com 1.10,2013-07-08 11:16:00,
2013-07-08 05:31:00,45.8,45.0,29.86,SE,143,0.0,1.0,96,0.00,,,0.02,weatherlink.com 1.10,2013-07-08 11:31:00,
2013-07-08 05:46:00,45.5,45.0,29.87,SE,143,0.0,1.0,96,0.00,,,0.02,weatherlink.com 1.10,2013-07-08 11:46:00,
2013-07-08 06:01:00,45.0,44.0,29.87,SE,143,0.0,1.0,96,0.00,,,0.02,weatherlink.com 1.10,2013-07-08 12:01:00,
2013-07-08 06:16:00,44.9,44.0,29.87,SSE,157,0.0,1.0,96,0.00,,,0.02,weatherlink.com 1.10,2013-07-08 12:16:00,
2013-07-08 06:31:00,44.9,44.0,29.87,SSE,160,0.0,0.0,96,0.00,,,0.02,weatherlink.com 1.10,2013-07-08 12:31:00,
2013-07-08 06:46:00,45.2,44.0,29.87,West,259,0.0,1.0,97,0.00,,,0.02,weatherlink.com 1.10,2013-07-08 12:46:00,
2013-07-08 07:01:00,45.5,45.0,29.88,SSW,213,0.0,1.0,96,0.00,,,0.02,weatherlink.com 1.10,2013-07-08 13:01:00,
2013-07-08 07:16:00,46.3,46.0,29.88,SSW,213,0.0,1.0,97,0.00,,,0.02,weatherlink.com 1.10,2013-07-08 13:16:00,
2013-07-08 07:31:00,47.0,46.0,29.88,SW,214,0.0,1.0,96,0.00,,,0.02,weatherlink.com 1.10,2013-07-08 13:31:00,
2013-07-08 07:46:00,48.4,47.0,29.88,SSW,212,0.0,1.0,96,0.00,,,0.02,weatherlink.com 1.10,2013-07-08 13:46:00,
2013-07-08 08:01:00,49.8,49.0,29.88,SSW,212,0.0,1.0,95,0.00,,,0.02,weatherlink.com 1.10,2013-07-08 14:01:00,
2013-07-08 08:16:00,51.2,50.0,29.88,SSW,212,0.0,0.0,96,0.00,,,0.02,weatherlink.com 1.10,2013-07-08 14:16:00,
2013-07-08 08:31:00,52.5,51.0,29.88,SE,131,0.0,1.0,93,0.00,,,0.02,weatherlink.com 1.10,2013-07-08 14:31:00,
2013-07-08 08:46:00,54.4,51.0,29.87,East,96,1.0,2.0,88,0.00,,,0.02,weatherlink.com 1.10,2013-07-08 14:46:00,
2013-07-08 09:01:00,55.8,52.0,29.87,East,92,2.0,2.0,86,0.00,,,0.02,weatherlink.com 1.10,2013-07-08 15:01:00,
2013-07-08 09:16:00,57.4,52.0,29.87,ESE,108,0.0,3.0,83,0.00,,,0.02,weatherlink.com 1.10,2013-07-08 15:16:00,
2013-07-08 09:31:00,59.3,52.0,29.87,ESE,111,0.0,4.0,77,0.00,,,0.02,weatherlink.com 1.10,2013-07-08 15:31:00,
2013-07-08 09:46:00,60.9,51.0,29.86,East,81,0.0,2.0,70,0.00,,,0.02,weatherlink.com 1.10,2013-07-08 15:46:00,
2013-07-08 10:02:00,62.2,50.0,29.86,ESE,103,0.0,3.0,65,0.00,,,0.02,weatherlink.com 1.10,2013-07-08 16:02:00,
2013-07-08 10:17:00,63.5,49.0,29.86,ESE,117,1.0,4.0,60,0.00,,,0.02,weatherlink.com 1.10,2013-07-08 16:17:00,
2013-07-08 10:32:00,64.7,51.0,29.86,ESE,113,0.0,5.0,61,0.00,,,0.02,weatherlink.com 1.10,2013-07-08 16:32:00,
2013-07-08 10:47:00,66.0,47.0,29.86,ESE,103,0.0,7.0,51,0.00,,,0.02,weatherlink.com 1.10,2013-07-08 16:47:00,
2013-07-08 11:02:00,67.7,47.0,29.86,West,264,2.0,12.0,47,0.00,,,0.02,weatherlink.com 1.10,2013-07-08 17:02:00,
2013-07-08 11:17:00,68.8,48.0,29.86,ENE,65,1.0,10.0,47,0.00,,,0.02,weatherlink.com 1.10,2013-07-08 17:17:00,
2013-07-08 11:32:00,69.1,48.0,29.86,SSE,147,2.0,10.0,47,0.00,,,0.02,weatherlink.com 1.10,2013-07-08 17:32:00,
2013-07-08 12:02:00,70.1,45.0,29.86,NE,44,1.0,7.0,41,0.00,,,0.02,weatherlink.com 1.10,2013-07-08 18:02:00,
2013-07-08 12:17:00,71.6,43.0,29.85,WNW,283,2.0,8.0,36,0.00,,,0.02,weatherlink.com 1.10,2013-07-08 18:17:00,
2013-07-08 12:47:00,70.5,44.0,29.84,ESE,102,0.0,9.0,38,0.00,,,0.02,weatherlink.com 1.10,2013-07-08 18:47:00,
2013-07-08 13:17:00,72.0,42.0,29.84,ESE,110,3.0,10.0,34,0.00,,,0.02,weatherlink.com 1.10,2013-07-08 19:17:00,
2013-07-08 13:47:00,70.9,39.0,29.83,ESE,108,1.0,10.0,31,0.00,,,0.02,weatherlink.com 1.10,2013-07-08 19:47:00,
2013-07-08 14:32:00,74.6,33.0,29.84,ENE,72,5.0,19.0,22,0.00,,,0.02,weatherlink.com 1.10,2013-07-08 20:32:00,
2013-07-08 15:02:00,74.6,30.0,29.84,East,99,15.0,25.0,19,0.00,,,0.02,weatherlink.com 1.10,2013-07-08 21:02:00,
2013-07-08 15:17:00,75.8,33.0,29.83,ENE,72,4.0,10.0,21,0.00,,,0.02,weatherlink.com 1.10,2013-07-08 21:17:00,
2013-07-08 16:17:00,75.1,30.0,29.82,East,100,7.0,14.0,19,0.00,,,0.02,weatherlink.com 1.10,2013-07-08 22:17:00,
2013-07-08 16:32:00,75.1,31.0,29.83,ENE,75,6.0,15.0,20,0.00,,,0.02,weatherlink.com 1.10,2013-07-08 22:32:00,
2013-07-08 17:02:00,74.2,35.0,29.83,East,97,6.0,12.0,24,0.00,,,0.02,weatherlink.com 1.10,2013-07-08 23:02:00,
2013-07-08 17:17:00,74.7,36.0,29.82,ESE,104,2.0,12.0,24,0.00,,,0.02,weatherlink.com 1.10,2013-07-08 23:17:00,
2013-07-08 17:32:00,74.6,35.0,29.82,East,94,2.0,12.0,24,0.00,,,0.02,weatherlink.com 1.10,2013-07-08 23:32:00,
2013-07-08 17:47:00,74.1,36.0,29.82,SSE,155,1.0,8.0,25,0.00,,,0.02,weatherlink.com 1.10,2013-07-08 23:47:00,
2013-07-08 18:03:00,74.2,37.0,29.82,East,83,2.0,10.0,26,0.00,,,0.02,weatherlink.com 1.10,2013-07-09 00:03:00,
2013-07-08 18:33:00,73.3,34.0,29.82,East,90,5.0,9.0,24,0.00,,,0.02,weatherlink.com 1.10,2013-07-09 00:33:00,
2013-07-08 18:48:00,72.7,34.0,29.82,ESE,111,3.0,9.0,24,0.00,,,0.02,weatherlink.com 1.10,2013-07-09 00:48:00,
2013-07-08 19:03:00,72.7,35.0,29.82,East,96,0.0,5.0,25,0.00,,,0.02,weatherlink.com 1.10,2013-07-09 01:03:00,
2013-07-08 19:18:00,71.8,38.0,29.83,East,93,3.0,4.0,29,0.00,,,0.02,weatherlink.com 1.10,2013-07-09 01:18:00,
2013-07-08 19:33:00,70.8,36.0,29.83,East,92,6.0,6.0,28,0.00,,,0.02,weatherlink.com 1.10,2013-07-09 01:33:00,
2013-07-08 19:48:00,70.1,37.0,29.84,East,86,0.0,2.0,30,0.00,,,0.02,weatherlink.com 1.10,2013-07-09 01:48:00,
2013-07-08 20:03:00,67.7,37.0,29.84,East,86,0.0,0.0,32,0.00,,,0.02,weatherlink.com 1.10,2013-07-09 02:03:00,
2013-07-08 20:33:00,61.5,39.0,29.85,SSW,200,0.0,1.0,43,0.00,,,0.02,weatherlink.com 1.10,2013-07-09 02:33:00,
2013-07-08 20:48:00,59.6,41.0,29.86,SSW,200,0.0,0.0,50,0.00,,,0.02,weatherlink.com 1.10,2013-07-09 02:48:00,
2013-07-08 21:18:00,56.6,40.0,29.87,SSW,200,0.0,1.0,55,0.00,,,0.02,weatherlink.com 1.10,2013-07-09 03:18:00,
2013-07-08 21:33:00,56.1,40.0,29.88,SSW,200,0.0,1.0,55,0.00,,,0.02,weatherlink.com 1.10,2013-07-09 03:33:00,
2013-07-08 22:03:00,54.2,39.0,29.90,SSW,199,0.0,0.0,58,0.00,,,0.02,weatherlink.com 1.10,2013-07-09 04:03:00,
2013-07-08 22:18:00,53.7,39.0,29.91,SSW,199,0.0,0.0,59,0.00,,,0.02,weatherlink.com 1.10,2013-07-09 04:18:00,
2013-07-08 22:33:00,53.6,39.0,29.91,SSW,199,0.0,1.0,59,0.00,,,0.02,weatherlink.com 1.10,2013-07-09 04:33:00,
2013-07-08 22:48:00,53.1,39.0,29.91,SSW,199,0.0,0.0,60,0.00,,,0.02,weatherlink.com 1.10,2013-07-09 04:48:00,
2013-07-08 23:03:00,52.6,39.0,29.92,SSW,199,0.0,0.0,60,0.00,,,0.02,weatherlink.com 1.10,2013-07-09 05:03:00,
2013-07-08 23:18:00,51.7,38.0,29.92,SSW,199,0.0,1.0,61,0.00,,,0.02,weatherlink.com 1.10,2013-07-09 05:18:00,
2013-07-08 23:33:00,50.7,39.0,29.92,SSW,199,0.0,1.0,64,0.00,,,0.02,weatherlink.com 1.10,2013-07-09 05:33:00,
2013-07-08 23:48:00,49.7,38.0,29.92,SSW,199,0.0,0.0,65,0.00,,,0.02,weatherlink.com 1.10,2013-07-09 05:48:00,